<?xml version='1.0' encoding='UTF-8'?><gpx version="1.1" creator="JPX - https://github.com/jenetics/jpx" xmlns="http://www.topografix.com/GPX/1/1"><trk><trkseg><trkpt lat="40.18680069407834" lon="18.0290522967645"><ele>35.0</ele><time>2026-04-21T16:48:55.996Z</time></trkpt><trkpt lat="40.186721805096276" lon="18.02901008170717"><ele>35.0</ele><time>2026-04-21T16:48:57.996Z</time></trkpt><trkpt lat="40.18661841398651" lon="18.028935792725793"><ele>35.0</ele><time>2026-04-21T16:48:59.996Z</time></trkpt><trkpt lat="40.18656594588097" lon="18.028881843733025"><ele>35.0</ele><time>2026-04-21T16:49:00.996Z</time></trkpt><trkpt lat="40.186472822320304" lon="18.028870812072345"><ele>35.0</ele><time>2026-04-21T16:49:01.996Z</time></trkpt><trkpt lat="40.18638845995669" lon="18.0287915994087"><ele>35.2</ele><time>2026-04-21T16:49:03.996Z</time></trkpt><trkpt lat="40.18632805142891" lon="18.02873705878144"><ele>35.4</ele><time>2026-04-21T16:49:05.996Z</time></trkpt><trkpt lat="40.186342118019304" lon="18.028630170277992"><ele>35.6</ele><time>2026-04-21T16:49:09.996Z</time></trkpt><trkpt lat="40.1864150416112" lon="18.028511788425085"><ele>35.8</ele><time>2026-04-21T16:49:11.996Z</time></trkpt><trkpt lat="40.18648073964446" lon="18.028390043108793"><ele>36.0</ele><time>2026-04-21T16:49:13.996Z</time></trkpt><trkpt lat="40.18651139576767" lon="18.028299695277326"><ele>35.5</ele><time>2026-04-21T16:49:15.996Z</time></trkpt><trkpt lat="40.18654826394953" lon="18.0282197048016"><ele>35.0</ele><time>2026-04-21T16:49:20.996Z</time></trkpt><trkpt lat="40.18657411804891" lon="18.028142353648484"><ele>34.5</ele><time>2026-04-21T16:49:23.996Z</time></trkpt><trkpt lat="40.186584053728104" lon="18.02805166881334"><ele>34.0</ele><time>2026-04-21T16:49:39.995Z</time></trkpt><trkpt lat="40.18649862792628" lon="18.02795558548149"><ele>33.5</ele><time>2026-04-21T16:49:42.995Z</time></trkpt><trkpt lat="40.18643399938172" lon="18.02794406131614"><ele>33.0</ele><time>2026-04-21T16:49:43.995Z</time></trkpt><trkpt lat="40.186348452454425" lon="18.027943541094658"><ele>33.0</ele><time>2026-04-21T16:49:44.995Z</time></trkpt><trkpt lat="40.186271657082905" lon="18.027940762723127"><ele>33.0</ele><time>2026-04-21T16:49:45.995Z</time></trkpt><trkpt lat="40.1861785848764" lon="18.027926297821587"><ele>33.0</ele><time>2026-04-21T16:49:46.995Z</time></trkpt><trkpt lat="40.18608300127985" lon="18.027907708729938"><ele>33.0</ele><time>2026-04-21T16:49:47.995Z</time></trkpt><trkpt lat="40.185988760573295" lon="18.027890446637677"><ele>33.0</ele><time>2026-04-21T16:49:48.995Z</time></trkpt><trkpt lat="40.18589534157687" lon="18.027869191103598"><ele>33.0</ele><time>2026-04-21T16:49:49.995Z</time></trkpt><trkpt lat="40.185796056785314" lon="18.027847649880258"><ele>33.0</ele><time>2026-04-21T16:49:50.995Z</time></trkpt><trkpt lat="40.185703548237754" lon="18.027821118041054"><ele>33.0</ele><time>2026-04-21T16:49:51.995Z</time></trkpt><trkpt lat="40.18561577178703" lon="18.02779182160557"><ele>33.0</ele><time>2026-04-21T16:49:52.995Z</time></trkpt><trkpt lat="40.185519742441336" lon="18.027759711891395"><ele>33.0</ele><time>2026-04-21T16:49:53.995Z</time></trkpt><trkpt lat="40.18542596433825" lon="18.02773518331681"><ele>33.4</ele><time>2026-04-21T16:49:54.995Z</time></trkpt><trkpt lat="40.18533621682828" lon="18.027702760942795"><ele>33.8</ele><time>2026-04-21T16:49:55.995Z</time></trkpt><trkpt lat="40.185237564290894" lon="18.02767613427934"><ele>34.2</ele><time>2026-04-21T16:49:56.995Z</time></trkpt><trkpt lat="40.18513762927764" lon="18.027647748415802"><ele>34.6</ele><time>2026-04-21T16:49:57.995Z</time></trkpt><trkpt lat="40.18504342508627" lon="18.027612487198795"><ele>35.0</ele><time>2026-04-21T16:49:58.995Z</time></trkpt><trkpt lat="40.18495828282865" lon="18.027589367486936"><ele>35.0</ele><time>2026-04-21T16:49:59.995Z</time></trkpt><trkpt lat="40.184878411602895" lon="18.027564279133024"><ele>35.0</ele><time>2026-04-21T16:50:00.995Z</time></trkpt><trkpt lat="40.184791959286414" lon="18.027533194016478"><ele>35.0</ele><time>2026-04-21T16:50:01.995Z</time></trkpt><trkpt lat="40.18469867888664" lon="18.027501281292388"><ele>35.0</ele><time>2026-04-21T16:50:02.995Z</time></trkpt><trkpt lat="40.18461071036269" lon="18.02747147205088"><ele>35.0</ele><time>2026-04-21T16:50:03.995Z</time></trkpt><trkpt lat="40.18453864371165" lon="18.027442328340417"><ele>35.0</ele><time>2026-04-21T16:50:04.995Z</time></trkpt><trkpt lat="40.18446938882461" lon="18.027422311520116"><ele>35.33333333333333</ele><time>2026-04-21T16:50:05.995Z</time></trkpt><trkpt lat="40.184402129113465" lon="18.027403946805105"><ele>35.666666666666664</ele><time>2026-04-21T16:50:06.995Z</time></trkpt><trkpt lat="40.18428065300252" lon="18.027373063128426"><ele>36.0</ele><time>2026-04-21T16:50:08.995Z</time></trkpt><trkpt lat="40.184214266541176" lon="18.02734787091562"><ele>36.333333333333336</ele><time>2026-04-21T16:50:09.995Z</time></trkpt><trkpt lat="40.184140572234256" lon="18.027320197901478"><ele>36.66666666666667</ele><time>2026-04-21T16:50:10.995Z</time></trkpt><trkpt lat="40.1840711070004" lon="18.02730432084938"><ele>37.0</ele><time>2026-04-21T16:50:11.995Z</time></trkpt><trkpt lat="40.18395069784832" lon="18.02728694138354"><ele>37.0</ele><time>2026-04-21T16:50:13.995Z</time></trkpt><trkpt lat="40.18385765351835" lon="18.02726049702725"><ele>37.0</ele><time>2026-04-21T16:50:15.995Z</time></trkpt><trkpt lat="40.18377957953559" lon="18.027235509674842"><ele>37.0</ele><time>2026-04-21T16:50:17.995Z</time></trkpt><trkpt lat="40.18370441014225" lon="18.02719159636996"><ele>37.0</ele><time>2026-04-21T16:50:19.995Z</time></trkpt><trkpt lat="40.18362811578506" lon="18.02716932348874"><ele>37.0</ele><time>2026-04-21T16:50:21.995Z</time></trkpt><trkpt lat="40.18356014089881" lon="18.02714948996817"><ele>37.0</ele><time>2026-04-21T16:50:23.995Z</time></trkpt><trkpt lat="40.18348196923217" lon="18.027123954626393"><ele>37.0</ele><time>2026-04-21T16:50:26.995Z</time></trkpt><trkpt lat="40.183417003797054" lon="18.027107347105524"><ele>37.0</ele><time>2026-04-21T16:50:28.995Z</time></trkpt><trkpt lat="40.183341317829125" lon="18.027084371154302"><ele>37.0</ele><time>2026-04-21T16:50:30.995Z</time></trkpt><trkpt lat="40.18326559392803" lon="18.027039252002705"><ele>37.0</ele><time>2026-04-21T16:50:32.995Z</time></trkpt><trkpt lat="40.183160806026095" lon="18.026971663912818"><ele>37.0</ele><time>2026-04-21T16:50:34.995Z</time></trkpt><trkpt lat="40.18309874056323" lon="18.026916193907237"><ele>37.0</ele><time>2026-04-21T16:50:35.995Z</time></trkpt><trkpt lat="40.18303764993499" lon="18.026874787706525"><ele>37.142857142857146</ele><time>2026-04-21T16:50:36.995Z</time></trkpt><trkpt lat="40.18297794790986" lon="18.026834346826785"><ele>37.285714285714285</ele><time>2026-04-21T16:50:37.995Z</time></trkpt><trkpt lat="40.18291672554576" lon="18.026787896891786"><ele>37.42857142857143</ele><time>2026-04-21T16:50:38.995Z</time></trkpt><trkpt lat="40.18284877780792" lon="18.02674140435185"><ele>37.57142857142857</ele><time>2026-04-21T16:50:39.995Z</time></trkpt><trkpt lat="40.182784486240685" lon="18.026709360061062"><ele>37.714285714285715</ele><time>2026-04-21T16:50:40.995Z</time></trkpt><trkpt lat="40.18271737730309" lon="18.026679852124612"><ele>37.857142857142854</ele><time>2026-04-21T16:50:41.995Z</time></trkpt><trkpt lat="40.18265785908925" lon="18.02663989014343"><ele>38.0</ele><time>2026-04-21T16:50:42.994Z</time></trkpt><trkpt lat="40.182550134459866" lon="18.026584587668932"><ele>38.0</ele><time>2026-04-21T16:50:44.994Z</time></trkpt><trkpt lat="40.1824548854811" lon="18.026522592172476"><ele>38.0</ele><time>2026-04-21T16:50:46.994Z</time></trkpt><trkpt lat="40.1823408863407" lon="18.026479778820335"><ele>38.0</ele><time>2026-04-21T16:50:48.994Z</time></trkpt><trkpt lat="40.182223273854945" lon="18.026424440196905"><ele>38.0</ele><time>2026-04-21T16:50:50.994Z</time></trkpt><trkpt lat="40.18216024669191" lon="18.02640372675306"><ele>38.0</ele><time>2026-04-21T16:50:51.994Z</time></trkpt><trkpt lat="40.18207579441217" lon="18.026393541096244"><ele>42.0</ele><time>2026-04-21T16:50:53.994Z</time></trkpt></trkseg></trk></gpx>